createdAt,value
2022-10-11T00:00:20.621Z,15.85
2022-10-11T00:02:48.129Z,12.73
2022-10-11T00:05:16.081Z,11.02
2022-10-11T00:07:43.587Z,15.63
2022-10-11T00:10:11.066Z,15.52
2022-10-11T00:12:39.087Z,13.15
2022-10-11T00:15:08.037Z,11.27
2022-10-11T00:17:35.655Z,9.27
2022-10-11T00:20:04.399Z,13.10
2022-10-11T00:22:31.891Z,10.98
2022-10-11T00:24:59.549Z,10.02
2022-10-11T00:27:27.353Z,15.77
2022-10-11T00:29:54.947Z,15.07
2022-10-11T00:32:22.413Z,9.30
2022-10-11T00:34:50.025Z,12.73
2022-10-11T00:37:17.923Z,13.02
2022-10-11T00:39:45.424Z,11.32
2022-10-11T00:42:17.407Z,14.07
2022-10-11T00:44:48.527Z,12.02
2022-10-11T00:47:21.794Z,11.98
2022-10-11T00:49:53.087Z,12.43
2022-10-11T00:52:31.657Z,14.88
2022-10-11T00:55:08.788Z,12.63
2022-10-11T00:57:41.789Z,11.35
2022-10-11T01:00:12.242Z,15.00
2022-10-11T01:02:40.658Z,12.32
2022-10-11T01:05:28.542Z,13.05
2022-10-11T01:07:59.327Z,13.32
2022-10-11T01:10:28.508Z,11.55
2022-10-11T01:13:09.118Z,14.27
2022-10-11T01:15:53.813Z,15.63
2022-10-11T01:18:45.441Z,13.82
2022-10-11T01:21:37.630Z,11.70
2022-10-11T01:24:26.880Z,16.02
2022-10-11T01:27:32.177Z,16.85
2022-10-11T01:30:05.537Z,14.85
2022-10-11T01:32:32.927Z,17.23
2022-10-11T01:35:10.705Z,16.95
2022-10-11T01:38:00.796Z,17.73
2022-10-11T01:40:42.215Z,14.75
2022-10-11T01:43:10.393Z,12.65
2022-10-11T01:45:39.163Z,19.17
2022-10-11T01:48:12.647Z,20.40
2022-10-11T01:50:55.646Z,12.68
2022-10-11T01:53:36.015Z,21.40
2022-10-11T01:56:15.547Z,13.98
2022-10-11T01:58:57.837Z,16.08
2022-10-11T02:01:42.795Z,19.58
2022-10-11T02:04:43.902Z,16.90
2022-10-11T02:07:23.454Z,14.57
2022-10-11T02:10:08.117Z,14.40
2022-10-11T02:12:44.678Z,18.33
2022-10-11T02:15:16.078Z,16.27
2022-10-11T02:17:56.472Z,17.13
2022-10-11T02:20:27.807Z,15.30
2022-10-11T02:23:03.897Z,22.48
2022-10-11T02:25:34.582Z,18.55
2022-10-11T02:28:06.317Z,14.73
2022-10-11T02:30:35.619Z,13.82
2022-10-11T02:33:09.231Z,16.88
2022-10-11T02:35:41.615Z,17.45
2022-10-11T02:38:23.526Z,20.48
2022-10-11T02:41:23.035Z,18.38
2022-10-11T02:44:06.745Z,16.38
2022-10-11T02:46:35.047Z,16.70
2022-10-11T02:49:02.598Z,21.40
2022-10-11T02:51:31.698Z,15.02
2022-10-11T02:53:59.648Z,22.75
2022-10-11T02:56:27.198Z,12.65
2022-10-11T02:58:54.645Z,20.20
2022-10-11T03:01:22.269Z,14.02
2022-10-11T03:03:49.817Z,14.85
2022-10-11T03:06:17.235Z,13.85
2022-10-11T03:08:44.736Z,15.70
2022-10-11T03:11:12.155Z,16.90
2022-10-11T03:13:39.612Z,13.68
2022-10-11T03:16:07.117Z,12.77
2022-10-11T03:18:34.619Z,15.63
2022-10-11T03:21:02.007Z,13.70
2022-10-11T03:23:29.625Z,19.77
2022-10-11T03:25:57.116Z,17.00
2022-10-11T03:28:24.683Z,17.13
2022-10-11T03:30:52.639Z,14.70
2022-10-11T03:33:20.824Z,14.45
2022-10-11T03:35:49.092Z,15.73
2022-10-11T03:38:20.653Z,14.80
2022-10-11T03:40:48.306Z,11.48
2022-10-11T03:43:15.796Z,14.95
2022-10-11T03:45:43.294Z,15.00
2022-10-11T03:48:11.439Z,15.43
2022-10-11T03:50:39.417Z,14.55
2022-10-11T03:53:09.408Z,11.63
2022-10-11T03:55:39.386Z,16.45
2022-10-11T03:58:07.946Z,13.88
2022-10-11T04:00:36.126Z,12.32
2022-10-11T04:03:06.726Z,16.77
2022-10-11T04:05:34.180Z,11.27
2022-10-11T04:08:01.639Z,14.15
2022-10-11T04:10:29.193Z,11.85
2022-10-11T04:12:56.657Z,12.70
2022-10-11T04:15:24.281Z,10.60
2022-10-11T04:17:51.756Z,13.07
2022-10-11T04:20:19.386Z,10.63
2022-10-11T04:22:46.888Z,11.95
2022-10-11T04:25:14.626Z,14.90
2022-10-11T04:27:42.087Z,17.48
2022-10-11T04:30:11.286Z,10.35
2022-10-11T04:32:38.733Z,10.70
2022-10-11T04:35:06.516Z,8.38
2022-10-11T04:37:34.169Z,13.60
2022-10-11T04:40:01.770Z,13.95
2022-10-11T04:42:29.485Z,12.48
2022-10-11T04:44:56.971Z,8.48
2022-10-11T04:47:24.444Z,10.25
2022-10-11T04:49:51.887Z,10.93
2022-10-11T04:52:22.159Z,9.13
2022-10-11T04:54:52.987Z,7.85
2022-10-11T04:57:20.497Z,9.27
2022-10-11T04:59:50.174Z,11.50
2022-10-11T05:02:18.414Z,13.95
2022-10-11T05:04:46.227Z,14.00
2022-10-11T05:07:13.788Z,12.70
2022-10-11T05:09:41.227Z,8.95
2022-10-11T05:12:09.007Z,7.78
2022-10-11T05:14:36.447Z,9.13
2022-10-11T05:17:03.917Z,9.93
2022-10-11T05:19:31.366Z,12.45
2022-10-11T05:21:58.888Z,7.15
2022-10-11T05:24:26.337Z,9.38
2022-10-11T05:26:53.786Z,7.70
2022-10-11T05:29:21.298Z,8.95
2022-10-11T05:31:48.795Z,11.80
2022-10-11T05:34:16.317Z,12.15
2022-10-11T05:36:43.788Z,10.30
2022-10-11T05:39:11.207Z,11.90
2022-10-11T05:41:38.633Z,9.32
2022-10-11T05:44:08.025Z,10.85
2022-10-11T05:46:35.451Z,9.63
2022-10-11T05:49:02.897Z,8.93
2022-10-11T05:51:30.363Z,11.20
2022-10-11T05:53:57.796Z,8.77
2022-10-11T05:56:26.047Z,9.68
2022-10-11T05:58:55.655Z,9.18
2022-10-11T06:01:26.741Z,8.95
2022-10-11T06:03:55.973Z,17.55
2022-10-11T06:06:23.956Z,12.32
2022-10-11T06:08:51.375Z,10.23
2022-10-11T06:11:25.528Z,8.50
2022-10-11T06:13:54.586Z,7.35
2022-10-11T06:16:22.112Z,6.43
2022-10-11T06:18:52.396Z,9.73
2022-10-11T06:21:19.908Z,13.95
2022-10-11T06:23:51.137Z,10.38
2022-10-11T06:26:19.308Z,10.85
2022-10-11T06:28:47.158Z,11.13
2022-10-11T06:31:14.838Z,14.43
2022-10-11T06:33:42.429Z,11.73
2022-10-11T06:36:13.007Z,9.93
2022-10-11T06:38:44.752Z,8.48
2022-10-11T06:41:21.177Z,8.73
2022-10-11T06:43:51.647Z,7.15
2022-10-11T06:46:21.639Z,10.93
2022-10-11T06:48:50.148Z,11.70
2022-10-11T06:51:20.952Z,10.55
2022-10-11T06:53:53.076Z,10.45
2022-10-11T06:56:20.735Z,9.50
2022-10-11T06:58:48.485Z,17.35
2022-10-11T07:01:18.748Z,9.57
2022-10-11T07:03:46.363Z,11.20
2022-10-11T07:06:17.466Z,10.63
2022-10-11T07:08:45.260Z,14.07
2022-10-11T07:11:25.088Z,7.63
2022-10-11T07:13:58.087Z,12.82
2022-10-11T07:16:26.918Z,10.75
2022-10-11T07:19:00.973Z,13.25
2022-10-11T07:21:30.603Z,12.63
2022-10-11T07:23:58.632Z,18.52
2022-10-11T07:26:26.777Z,12.82
2022-10-11T07:28:54.509Z,11.95
2022-10-11T07:31:24.663Z,12.77
2022-10-11T07:33:52.879Z,13.98
2022-10-11T07:36:20.614Z,15.93
2022-10-11T07:38:48.436Z,17.10
2022-10-11T07:41:16.387Z,11.38
2022-10-11T07:43:44.036Z,13.77
2022-10-11T07:46:11.831Z,15.68
2022-10-11T07:48:39.387Z,14.73
2022-10-11T07:51:12.407Z,11.40
2022-10-11T07:53:42.208Z,13.82
2022-10-11T07:56:12.699Z,14.98
2022-10-11T07:58:41.512Z,15.65
2022-10-11T08:01:10.216Z,14.10
2022-10-11T08:03:38.452Z,14.02
2022-10-11T08:06:09.721Z,19.05
2022-10-11T08:08:38.336Z,19.25
2022-10-11T08:11:06.115Z,10.13
2022-10-11T08:13:34.374Z,9.75
2022-10-11T08:16:09.299Z,12.18
2022-10-11T08:18:57.250Z,16.35
2022-10-11T08:21:26.925Z,16.63
2022-10-11T08:23:54.510Z,17.83
2022-10-11T08:26:22.526Z,22.35
2022-10-11T08:28:50.096Z,15.05
2022-10-11T08:31:18.116Z,18.92
2022-10-11T08:33:45.786Z,17.30
2022-10-11T08:36:13.643Z,16.15
2022-10-11T08:38:41.683Z,14.60
2022-10-11T08:41:40.988Z,12.43
2022-10-11T08:44:58.724Z,11.80
2022-10-11T08:47:39.177Z,13.73
2022-10-11T08:50:14.785Z,16.90
2022-10-11T08:52:53.857Z,13.38
2022-10-11T08:55:48.294Z,12.65
2022-10-11T08:58:20.655Z,9.43
2022-10-11T09:00:53.203Z,16.30
2022-10-11T09:03:28.567Z,10.02
2022-10-11T09:06:14.836Z,14.52
2022-10-11T09:08:49.360Z,14.20
2022-10-11T09:11:35.651Z,11.63
2022-10-11T09:14:12.002Z,17.10
2022-10-11T09:16:55.795Z,12.35
2022-10-11T09:19:43.357Z,15.52
2022-10-11T09:22:13.427Z,10.35
2022-10-11T09:24:41.237Z,11.52
2022-10-11T09:27:49.915Z,14.73
2022-10-11T09:30:17.310Z,11.20
2022-10-11T09:33:07.617Z,15.25
2022-10-11T09:35:42.578Z,11.52
2022-10-11T09:38:24.845Z,15.02
2022-10-11T09:41:19.544Z,9.88
2022-10-11T09:43:52.017Z,13.48
2022-10-11T09:46:53.086Z,10.40
2022-10-11T09:49:25.643Z,14.07
2022-10-11T09:51:56.017Z,15.98
2022-10-11T09:54:41.586Z,11.57
2022-10-11T09:57:31.071Z,13.48
2022-10-11T10:00:30.554Z,12.05
2022-10-11T10:03:03.254Z,12.07
2022-10-11T10:05:37.092Z,13.30
2022-10-11T10:10:38.916Z,8.98
2022-10-11T10:13:26.483Z,11.70
2022-10-11T10:15:58.026Z,10.60
2022-10-11T10:18:53.715Z,13.57
2022-10-11T10:21:34.212Z,10.38
2022-10-11T10:24:08.316Z,12.35
2022-10-11T10:26:36.129Z,11.55
2022-10-11T10:29:12.342Z,11.13
2022-10-11T10:32:14.943Z,8.43
2022-10-11T10:35:00.515Z,8.25
2022-10-11T10:37:32.666Z,11.65
2022-10-11T10:40:09.092Z,9.18
2022-10-11T10:42:37.592Z,12.75
2022-10-11T10:45:12.164Z,13.85
2022-10-11T10:47:57.092Z,10.40
2022-10-11T10:50:54.715Z,10.80
2022-10-11T10:53:37.877Z,8.30
2022-10-11T10:56:15.617Z,8.27
2022-10-11T10:58:49.533Z,7.10
2022-10-11T11:03:52.976Z,8.70
2022-10-11T11:06:45.457Z,7.75
2022-10-11T11:09:50.952Z,5.38
2022-10-11T11:12:49.672Z,10.80
2022-10-11T11:20:01.234Z,9.00
2022-10-11T11:22:43.554Z,6.50
2022-10-11T11:25:48.255Z,11.93
2022-10-11T11:28:53.185Z,16.00
2022-10-11T11:31:54.754Z,9.18
2022-10-11T11:34:34.237Z,5.70
2022-10-11T11:37:14.091Z,7.10
2022-10-11T11:39:46.305Z,7.18
2022-10-11T11:42:21.414Z,8.65
2022-10-11T11:44:51.284Z,7.65
2022-10-11T11:47:26.255Z,6.68
2022-10-11T11:50:01.262Z,11.95
2022-10-11T11:52:41.154Z,10.35
2022-10-11T11:55:56.894Z,12.20
2022-10-11T11:58:33.134Z,14.00
2022-10-11T12:01:07.253Z,11.20
2022-10-11T12:03:42.109Z,11.80
2022-10-11T12:06:12.691Z,8.88
2022-10-11T12:08:43.689Z,8.35
2022-10-11T12:11:37.196Z,9.45
2022-10-11T12:14:24.934Z,7.68
2022-10-11T12:17:12.753Z,7.72
2022-10-11T12:19:44.525Z,5.22
2022-10-11T12:22:27.235Z,9.50
2022-10-11T12:24:59.297Z,8.57
2022-10-11T12:28:17.974Z,8.13
2022-10-11T12:30:48.099Z,4.63
2022-10-11T12:33:41.856Z,11.68
2022-10-11T12:36:28.819Z,6.43
2022-10-11T12:39:21.001Z,8.38
2022-10-11T12:41:51.468Z,8.68
2022-10-11T12:44:18.863Z,5.95
2022-10-11T12:46:55.185Z,10.60
2022-10-11T12:49:43.907Z,7.20
2022-10-11T12:52:17.785Z,9.55
2022-10-11T12:58:01.736Z,10.20
2022-10-11T13:00:57.138Z,9.43
2022-10-11T13:03:43.039Z,7.43
2022-10-11T13:06:21.916Z,8.13
2022-10-11T13:08:54.886Z,9.82
2022-10-11T13:11:31.083Z,6.70
2022-10-11T13:14:05.657Z,5.75
2022-10-11T13:16:57.211Z,6.97
2022-10-11T13:19:24.960Z,7.65
2022-10-11T13:21:59.367Z,8.38
2022-10-11T13:24:34.470Z,9.45
2022-10-11T13:27:02.597Z,9.02
2022-10-11T13:29:37.364Z,5.55
2022-10-11T13:32:13.479Z,9.85
2022-10-11T13:34:44.677Z,7.57
2022-10-11T13:37:22.659Z,8.25
2022-10-11T13:39:53.112Z,8.60
2022-10-11T13:42:29.748Z,7.40
2022-10-11T13:44:59.628Z,7.78
2022-10-11T13:47:30.017Z,6.30
2022-10-11T13:50:11.098Z,6.57
2022-10-11T13:52:55.424Z,8.90
2022-10-11T13:55:37.147Z,7.95
2022-10-11T13:58:18.714Z,6.43
2022-10-11T14:01:21.026Z,10.15
2022-10-11T14:03:57.465Z,12.10
2022-10-11T14:06:38.735Z,7.45
2022-10-11T14:09:14.171Z,5.88
2022-10-11T14:11:41.664Z,5.55
2022-10-11T14:14:29.107Z,9.32
2022-10-11T14:16:58.711Z,9.13
2022-10-11T14:19:26.150Z,4.55
2022-10-11T14:21:54.036Z,10.95
2022-10-11T14:24:22.435Z,6.15
2022-10-11T14:26:52.656Z,10.35
2022-10-11T14:29:31.595Z,7.13
2022-10-11T14:32:24.106Z,8.05
2022-10-11T14:34:52.811Z,7.78
2022-10-11T14:37:20.686Z,7.15
2022-10-11T14:39:48.885Z,6.72
2022-10-11T14:42:16.747Z,7.20
2022-10-11T14:44:44.626Z,3.97
2022-10-11T14:47:18.321Z,5.70
2022-10-11T14:49:45.756Z,3.30
2022-10-11T14:52:14.125Z,7.10
2022-10-11T14:54:41.655Z,6.53
2022-10-11T14:57:12.445Z,6.80
2022-10-11T14:59:40.141Z,13.07
2022-10-11T15:02:11.363Z,7.18
2022-10-11T15:04:38.876Z,5.20
2022-10-11T15:07:06.252Z,6.82
2022-10-11T15:09:33.777Z,8.00
2022-10-11T15:12:01.243Z,6.75
2022-10-11T15:14:28.815Z,7.88
2022-10-11T15:16:56.479Z,4.80
2022-10-11T15:19:25.153Z,3.75
2022-10-11T15:21:53.070Z,7.53
2022-10-11T15:24:20.634Z,4.72
2022-10-11T15:26:49.080Z,5.20
2022-10-11T15:29:18.097Z,8.40
2022-10-11T15:31:46.499Z,5.38
2022-10-11T15:34:14.520Z,4.65
2022-10-11T15:36:41.957Z,4.55
2022-10-11T15:39:24.514Z,5.85
2022-10-11T15:41:51.990Z,4.93
2022-10-11T15:44:19.426Z,4.30
2022-10-11T15:46:46.979Z,2.75
2022-10-11T15:49:14.633Z,3.95
2022-10-11T15:51:42.130Z,7.18
2022-10-11T15:54:09.632Z,3.38
2022-10-11T15:56:37.349Z,3.75
2022-10-11T15:59:04.890Z,8.25
2022-10-11T16:01:33.117Z,3.72
2022-10-11T16:04:00.626Z,3.35
2022-10-11T16:06:28.097Z,4.35
2022-10-11T16:08:55.642Z,5.22
2022-10-11T16:11:23.151Z,4.57
2022-10-11T16:13:50.590Z,4.97
2022-10-11T16:16:18.070Z,2.60
2022-10-11T16:18:45.491Z,3.70
2022-10-11T16:21:15.627Z,5.30
2022-10-11T16:23:43.367Z,5.82
2022-10-11T16:26:14.111Z,12.38
2022-10-11T16:28:42.213Z,8.80
2022-10-11T16:31:13.431Z,11.52
2022-10-11T16:33:46.133Z,10.95
2022-10-11T16:36:35.001Z,9.98
2022-10-11T16:39:07.129Z,11.85
2022-10-11T16:41:35.082Z,9.13
2022-10-11T16:44:03.251Z,6.97
2022-10-11T16:46:32.430Z,9.65
2022-10-11T16:49:00.341Z,9.15
2022-10-11T16:51:27.864Z,7.38
2022-10-11T16:53:55.229Z,6.00
2022-10-11T16:56:25.179Z,5.32
2022-10-11T16:58:54.232Z,6.82
2022-10-11T17:01:22.384Z,8.63
2022-10-11T17:03:50.766Z,8.48
2022-10-11T17:06:19.430Z,6.75
2022-10-11T17:08:47.011Z,5.53
2022-10-11T17:11:14.976Z,4.75
2022-10-11T17:13:42.640Z,6.78
2022-10-11T17:16:10.280Z,7.70
2022-10-11T17:18:37.920Z,4.65
2022-10-11T17:21:11.948Z,6.28
2022-10-11T17:23:39.638Z,6.13
2022-10-11T17:26:15.608Z,4.53
2022-10-11T17:28:43.604Z,6.22
2022-10-11T17:31:11.497Z,5.10
2022-10-11T17:33:39.246Z,6.57
2022-10-11T17:36:31.921Z,2.92
2022-10-11T17:39:01.598Z,5.05
2022-10-11T17:41:31.988Z,4.00
2022-10-11T17:44:01.290Z,6.80
2022-10-11T17:46:32.592Z,6.55
2022-10-11T17:49:02.324Z,7.95
2022-10-11T17:51:29.768Z,6.80
2022-10-11T17:53:57.590Z,8.90
2022-10-11T17:56:30.456Z,8.90
2022-10-11T17:59:00.119Z,7.43
2022-10-11T18:01:29.615Z,6.70
2022-10-11T18:04:03.132Z,5.90
2022-10-11T18:06:33.814Z,3.95
2022-10-11T18:09:02.739Z,4.40
2022-10-11T18:11:30.869Z,7.68
2022-10-11T18:13:58.520Z,6.97
2022-10-11T18:16:27.948Z,4.47
2022-10-11T18:18:57.605Z,4.68
2022-10-11T18:21:28.780Z,5.18
2022-10-11T18:24:03.284Z,7.07
2022-10-11T18:26:31.212Z,4.75
2022-10-11T18:28:59.858Z,6.03
2022-10-11T18:31:30.013Z,5.18
2022-10-11T18:33:57.937Z,6.95
2022-10-11T18:36:28.747Z,5.55
2022-10-11T18:39:00.044Z,4.18
2022-10-11T18:41:30.829Z,8.55
2022-10-11T18:44:04.341Z,5.00
2022-10-11T18:46:32.295Z,5.95
2022-10-11T18:49:02.254Z,7.78
2022-10-11T18:51:33.358Z,4.55
2022-10-11T18:54:01.279Z,6.28
2022-10-11T18:56:30.558Z,4.93
2022-10-11T18:58:59.098Z,3.97
2022-10-11T19:01:29.722Z,3.22
2022-10-11T19:03:59.360Z,5.90
2022-10-11T19:06:38.671Z,4.05
2022-10-11T19:09:10.039Z,5.07
2022-10-11T19:11:38.236Z,8.90
2022-10-11T19:14:08.473Z,4.40
2022-10-11T19:16:39.139Z,4.90
2022-10-11T19:19:08.176Z,6.53
2022-10-11T19:21:35.704Z,5.57
2022-10-11T19:24:03.479Z,8.10
2022-10-11T19:26:33.903Z,6.18
2022-10-11T19:29:10.216Z,8.40
2022-10-11T19:31:42.680Z,6.68
2022-10-11T19:34:11.077Z,5.72
2022-10-11T19:36:39.447Z,6.25
2022-10-11T19:39:06.953Z,10.30
2022-10-11T19:41:34.366Z,3.40
2022-10-11T19:44:02.231Z,4.72
2022-10-11T19:46:50.261Z,6.72
2022-10-11T19:49:20.447Z,8.88
2022-10-11T19:51:47.987Z,5.18
2022-10-11T19:54:16.167Z,5.10
2022-10-11T19:56:45.013Z,8.27
2022-10-11T19:59:13.246Z,7.15
2022-10-11T20:01:41.979Z,3.75
2022-10-11T20:04:27.505Z,6.80
2022-10-11T20:06:59.022Z,4.28
2022-10-11T20:09:30.822Z,6.55
2022-10-11T20:11:59.096Z,4.50
2022-10-11T20:14:26.895Z,6.25
2022-10-11T20:16:54.359Z,7.22
2022-10-11T20:19:25.009Z,7.85
2022-10-11T20:21:56.995Z,7.95
2022-10-11T20:24:24.556Z,6.57
2022-10-11T20:26:52.012Z,6.25
2022-10-11T20:29:19.466Z,6.70
2022-10-11T20:31:46.947Z,8.80
2022-10-11T20:34:14.806Z,9.45
2022-10-11T20:36:45.697Z,10.10
2022-10-11T20:39:16.007Z,7.30
2022-10-11T20:41:43.918Z,10.02
2022-10-11T20:44:13.275Z,10.02
2022-10-11T20:46:40.712Z,5.72
2022-10-11T20:49:10.909Z,10.45
2022-10-11T20:51:40.071Z,8.75
2022-10-11T20:54:07.786Z,7.93
2022-10-11T20:56:37.082Z,8.55
2022-10-11T20:59:05.222Z,7.70
2022-10-11T21:01:37.286Z,9.55
2022-10-11T21:04:06.365Z,10.15
2022-10-11T21:06:34.433Z,8.68
2022-10-11T21:09:02.414Z,6.80
2022-10-11T21:11:32.378Z,5.68
2022-10-11T21:14:05.077Z,4.40
2022-10-11T21:16:34.031Z,9.55
2022-10-11T21:19:02.663Z,7.85
2022-10-11T21:21:30.857Z,6.07
2022-10-11T21:24:01.260Z,14.27
2022-10-11T21:26:29.692Z,8.25
2022-10-11T21:28:59.420Z,9.15
2022-10-11T21:31:31.255Z,9.32
2022-10-11T21:34:02.621Z,5.45
2022-10-11T21:36:30.164Z,4.20
2022-10-11T21:38:57.785Z,5.30
2022-10-11T21:41:26.987Z,7.88
2022-10-11T21:43:54.558Z,6.93
2022-10-11T21:46:47.676Z,6.53
2022-10-11T21:49:15.142Z,6.78
2022-10-11T21:51:42.772Z,7.95
2022-10-11T21:54:10.272Z,4.82
2022-10-11T21:56:37.640Z,8.45
2022-10-11T21:59:07.938Z,8.00
2022-10-11T22:01:39.271Z,6.45
2022-10-11T22:04:10.409Z,8.32
2022-10-11T22:06:38.524Z,9.52
2022-10-11T22:09:06.611Z,8.63
2022-10-11T22:11:34.646Z,7.68
2022-10-11T22:14:02.450Z,9.77
2022-10-11T22:16:30.004Z,7.95
2022-10-11T22:18:57.474Z,8.52
2022-10-11T22:21:24.889Z,6.00
2022-10-11T22:23:54.138Z,6.90
2022-10-11T22:26:24.225Z,6.57
2022-10-11T22:28:53.511Z,6.50
2022-10-11T22:31:22.117Z,7.32
2022-10-11T22:33:54.481Z,9.90
2022-10-11T22:36:24.191Z,4.72
2022-10-11T22:38:53.034Z,8.00
2022-10-11T22:41:20.860Z,11.60
2022-10-11T22:43:48.503Z,9.50
2022-10-11T22:46:16.213Z,7.40
2022-10-11T22:48:43.679Z,6.70
2022-10-11T22:51:11.132Z,10.38
2022-10-11T22:53:39.044Z,5.05
2022-10-11T22:56:06.729Z,6.97
2022-10-11T22:58:34.370Z,6.65
2022-10-11T23:01:13.592Z,8.40
2022-10-11T23:03:41.271Z,9.35
2022-10-11T23:06:08.843Z,11.27
2022-10-11T23:08:36.319Z,6.18
2022-10-11T23:11:08.012Z,10.48
2022-10-11T23:13:35.838Z,14.32
2022-10-11T23:16:11.416Z,3.80
2022-10-11T23:18:39.283Z,8.10
2022-10-11T23:21:07.762Z,7.75
2022-10-11T23:23:35.833Z,6.35
2022-10-11T23:26:05.832Z,10.20
2022-10-11T23:28:33.591Z,8.90
2022-10-11T23:31:01.226Z,8.70
2022-10-11T23:33:29.608Z,9.13
2022-10-11T23:35:57.132Z,10.65
2022-10-11T23:38:24.603Z,5.43
2022-10-11T23:40:52.154Z,5.72
2022-10-11T23:43:19.618Z,5.50
2022-10-11T23:45:47.142Z,7.88
2022-10-11T23:48:14.662Z,11.40
2022-10-11T23:50:42.622Z,8.93
2022-10-11T23:53:10.925Z,9.10
2022-10-11T23:55:38.321Z,9.23
2022-10-11T23:58:05.932Z,8.70
